PAKT/KTN METAR and TAF weather

Enter ICAO airport designator
Station Type Date Time Source
PAKT METAR 2020/01/22 20:53 UTC NOAA

PAKT 222053Z 14013G17KT 8SM -RA BKN023 OVC030 06/04 A2958 RMK HARBOR WIND 11025KT


Station Type Date Time Source
PAKT Decoded METAR 2020/01/22 20:53 UTC NOAA

KETCHIKAN INTERNATIONAL AIRPORT , AK, United States (PAKT) 55-21N 131-43W 25M
Jan 22, 2020 - 03:53 PM EST / 2020.01.22 2053 UTC
Wind: from the SE (140 degrees) at 15 MPH (13 KT) gusting to 20 MPH (17 KT):0
Visibility: 8 mile(s):0
Sky conditions: overcast
Weather: light rain
Temperature: 42 F (6 C)
Dew Point: 39 F (4 C)
Relative Humidity: 86%
Pressure (altimeter): 29.58 in. Hg (1001 hPa)
ob: PAKT 222053Z 14013G17KT 8SM -RA BKN023 OVC030 06/04 A2958 RMK HARBOR WIND 11025KT
cycle: 21

Station Type Date Time Source
PAKT TAF 2020/01/22 18:36 UTC NOAA

TAF PAKT 221735Z 2218/2318 13014G22KT P6SM -RA OVC020 WS020/15030KT
FM230100 15018G28KT 4SM RA BR OVC015 WS020/14045KT
AMD LTD TO CLD VIS AND WIND 2306/2315

Example: see airport list